N98CK KGRB-KALO
Flight info
| Callsign | N98CK |
|---|---|
| Flight time | 1h 11m |
| Altitude | 8000 |
| Route | DCT LIMME DCT WITOL DCT ZEZDU DCT |
| Aircraft | AEST/L-VGD/C |
Departure
| Time | 2026-04-30 02:05 |
|---|---|
| Airport | Austin Straubel International Airport (KGRB) |
Arrival
| Time | 2026-04-30 03:17 |
|---|---|
| Airport | Waterloo Regional Airport (KALO) |
| Time | Latitude | Longitude | Altitude | Speed | Heading |
|---|---|---|---|---|---|
| 2026-04-30 01:45 | 44.49322 | -88.11691 | 686 ft | 0 kts | 149° |
| 2026-04-30 02:02 | 44.49313 | -88.11680 | 676 ft | 5 kts | 108° |
| 2026-04-30 02:02 | 44.49340 | -88.11579 | 684 ft | 17 kts | 60° |
| 2026-04-30 02:02 | 44.49343 | -88.11473 | 681 ft | 10 kts | 106° |
| 2026-04-30 02:02 | 44.49396 | -88.11382 | 681 ft | 3 kts | 74° |
| 2026-04-30 02:03 | 44.49383 | -88.11348 | 681 ft | 11 kts | 126° |
| 2026-04-30 02:03 | 44.49368 | -88.11324 | 681 ft | 0 kts | 140° |
| 2026-04-30 02:04 | 44.49306 | -88.11284 | 682 ft | 18 kts | 180° |
| 2026-04-30 02:04 | 44.49224 | -88.11446 | 684 ft | 42 kts | 242° |
| 2026-04-30 02:04 | 44.48941 | -88.12115 | 688 ft | 107 kts | 238° |
| 2026-04-30 02:05 | 44.48530 | -88.13096 | 837 ft | 126 kts | 239° |
| 2026-04-30 02:05 | 44.48041 | -88.14239 | 1141 ft | 144 kts | 240° |
| 2026-04-30 02:05 | 44.47523 | -88.15443 | 1499 ft | 158 kts | 239° |
| 2026-04-30 02:05 | 44.46887 | -88.16854 | 1575 ft | 181 kts | 239° |
| 2026-04-30 02:06 | 44.46178 | -88.18395 | 1722 ft | 194 kts | 240° |
| 2026-04-30 02:06 | 44.45433 | -88.19999 | 1924 ft | 198 kts | 239° |
| 2026-04-30 02:06 | 44.44669 | -88.21633 | 2062 ft | 202 kts | 240° |
| 2026-04-30 02:06 | 44.43895 | -88.23291 | 2222 ft | 204 kts | 239° |
| 2026-04-30 02:07 | 44.43022 | -88.24865 | 2405 ft | 205 kts | 232° |
| 2026-04-30 02:07 | 44.42089 | -88.26359 | 2632 ft | 204 kts | 232° |
| 2026-04-30 02:07 | 44.41156 | -88.27849 | 2845 ft | 203 kts | 232° |
| 2026-04-30 02:07 | 44.40223 | -88.29339 | 3051 ft | 203 kts | 232° |
| 2026-04-30 02:08 | 44.39292 | -88.30822 | 3268 ft | 203 kts | 232° |
| 2026-04-30 02:08 | 44.38363 | -88.32304 | 3478 ft | 202 kts | 232° |
| 2026-04-30 02:08 | 44.37431 | -88.33784 | 3673 ft | 203 kts | 232° |
| 2026-04-30 02:08 | 44.36497 | -88.35261 | 3869 ft | 203 kts | 232° |
| 2026-04-30 02:09 | 44.35572 | -88.36715 | 4056 ft | 202 kts | 232° |
| 2026-04-30 02:09 | 44.34639 | -88.38175 | 4283 ft | 201 kts | 232° |
| 2026-04-30 02:09 | 44.33684 | -88.39591 | 4491 ft | 200 kts | 231° |
| 2026-04-30 02:09 | 44.32722 | -88.40997 | 4697 ft | 200 kts | 231° |
| 2026-04-30 02:10 | 44.31766 | -88.42402 | 4892 ft | 199 kts | 233° |
| 2026-04-30 02:10 | 44.31040 | -88.44001 | 5173 ft | 192 kts | 256° |
| 2026-04-30 02:10 | 44.30679 | -88.45755 | 5404 ft | 187 kts | 260° |
| 2026-04-30 02:10 | 44.30350 | -88.47504 | 5593 ft | 185 kts | 260° |
| 2026-04-30 02:11 | 44.30026 | -88.49225 | 5819 ft | 182 kts | 260° |
| 2026-04-30 02:11 | 44.29700 | -88.50933 | 6015 ft | 181 kts | 260° |
| 2026-04-30 02:11 | 44.29377 | -88.52631 | 6206 ft | 181 kts | 260° |
| 2026-04-30 02:11 | 44.29052 | -88.54321 | 6411 ft | 180 kts | 260° |
| 2026-04-30 02:12 | 44.28726 | -88.56003 | 6596 ft | 179 kts | 260° |
| 2026-04-30 02:12 | 44.28400 | -88.57678 | 6768 ft | 179 kts | 260° |
| 2026-04-30 02:12 | 44.28080 | -88.59343 | 6957 ft | 177 kts | 259° |
| 2026-04-30 02:12 | 44.27611 | -88.60930 | 7113 ft | 177 kts | 248° |
| 2026-04-30 02:13 | 44.26996 | -88.62430 | 7362 ft | 178 kts | 245° |
| 2026-04-30 02:13 | 44.26360 | -88.63906 | 7587 ft | 177 kts | 245° |
| 2026-04-30 02:13 | 44.25724 | -88.65389 | 7803 ft | 178 kts | 245° |
| 2026-04-30 02:13 | 44.25093 | -88.66872 | 8017 ft | 178 kts | 245° |
| 2026-04-30 02:14 | 44.24462 | -88.68360 | 8064 ft | 186 kts | 244° |
| 2026-04-30 02:14 | 44.23779 | -88.69967 | 8006 ft | 194 kts | 244° |
| 2026-04-30 02:14 | 44.23091 | -88.71585 | 8002 ft | 194 kts | 244° |
| 2026-04-30 02:14 | 44.22400 | -88.73203 | 8005 ft | 194 kts | 244° |
| 2026-04-30 02:15 | 44.21713 | -88.74817 | 8010 ft | 193 kts | 244° |
| 2026-04-30 02:15 | 44.21027 | -88.76427 | 8011 ft | 193 kts | 244° |
| 2026-04-30 02:15 | 44.20339 | -88.78038 | 8010 ft | 193 kts | 244° |
| 2026-04-30 02:15 | 44.19653 | -88.79648 | 8012 ft | 194 kts | 244° |
| 2026-04-30 02:16 | 44.18960 | -88.81269 | 8030 ft | 195 kts | 244° |
| 2026-04-30 02:16 | 44.18265 | -88.82896 | 8031 ft | 196 kts | 244° |
| 2026-04-30 02:16 | 44.17567 | -88.84530 | 8031 ft | 196 kts | 244° |
| 2026-04-30 02:16 | 44.16866 | -88.86168 | 8022 ft | 198 kts | 244° |
| 2026-04-30 02:17 | 44.16161 | -88.87815 | 8036 ft | 197 kts | 244° |
| 2026-04-30 02:17 | 44.15467 | -88.89439 | 8036 ft | 198 kts | 244° |
| 2026-04-30 02:17 | 44.14758 | -88.91093 | 8031 ft | 199 kts | 244° |
| 2026-04-30 02:17 | 44.14047 | -88.92750 | 8027 ft | 199 kts | 244° |
| 2026-04-30 02:18 | 44.13334 | -88.94411 | 8030 ft | 199 kts | 244° |
| 2026-04-30 02:18 | 44.12622 | -88.96071 | 8028 ft | 200 kts | 244° |
| 2026-04-30 02:18 | 44.11911 | -88.97728 | 8028 ft | 200 kts | 244° |
| 2026-04-30 02:18 | 44.11199 | -88.99387 | 8026 ft | 200 kts | 244° |
| 2026-04-30 02:19 | 44.10486 | -89.01045 | 8030 ft | 200 kts | 244° |
| 2026-04-30 02:19 | 44.09772 | -89.02704 | 8023 ft | 200 kts | 244° |
| 2026-04-30 02:19 | 44.09058 | -89.04362 | 8023 ft | 200 kts | 244° |
| 2026-04-30 02:19 | 44.08343 | -89.06021 | 8027 ft | 200 kts | 244° |
| 2026-04-30 02:20 | 44.07629 | -89.07680 | 8024 ft | 200 kts | 244° |
| 2026-04-30 02:20 | 44.06914 | -89.09336 | 8022 ft | 200 kts | 244° |
| 2026-04-30 02:20 | 44.06201 | -89.10990 | 8019 ft | 200 kts | 245° |
| 2026-04-30 02:20 | 44.05486 | -89.12647 | 8018 ft | 200 kts | 244° |
| 2026-04-30 02:21 | 44.04779 | -89.14283 | 8018 ft | 200 kts | 245° |
| 2026-04-30 02:21 | 44.04063 | -89.15938 | 8023 ft | 200 kts | 245° |
| 2026-04-30 02:21 | 44.03349 | -89.17593 | 8016 ft | 200 kts | 245° |
| 2026-04-30 02:21 | 44.02632 | -89.19252 | 8017 ft | 200 kts | 244° |
| 2026-04-30 02:22 | 44.01913 | -89.20907 | 8015 ft | 200 kts | 245° |
| 2026-04-30 02:22 | 44.01197 | -89.22562 | 8014 ft | 200 kts | 245° |
| 2026-04-30 02:22 | 44.00479 | -89.24219 | 8010 ft | 200 kts | 245° |
| 2026-04-30 02:22 | 43.99763 | -89.25872 | 8011 ft | 200 kts | 245° |
| 2026-04-30 02:23 | 43.99045 | -89.27527 | 8013 ft | 200 kts | 245° |
| 2026-04-30 02:23 | 43.98325 | -89.29183 | 8014 ft | 200 kts | 245° |
| 2026-04-30 02:23 | 43.97617 | -89.30813 | 8011 ft | 200 kts | 245° |
| 2026-04-30 02:23 | 43.96899 | -89.32468 | 8013 ft | 200 kts | 245° |
| 2026-04-30 02:24 | 43.96179 | -89.34121 | 8013 ft | 200 kts | 245° |
| 2026-04-30 02:24 | 43.95462 | -89.35769 | 8012 ft | 200 kts | 245° |
| 2026-04-30 02:24 | 43.94743 | -89.37420 | 8014 ft | 200 kts | 245° |
| 2026-04-30 02:24 | 43.94024 | -89.39070 | 8013 ft | 200 kts | 245° |
| 2026-04-30 02:25 | 43.93306 | -89.40720 | 8013 ft | 200 kts | 245° |
| 2026-04-30 02:25 | 43.92587 | -89.42368 | 8011 ft | 200 kts | 245° |
| 2026-04-30 02:25 | 43.91868 | -89.44014 | 8014 ft | 200 kts | 245° |
| 2026-04-30 02:25 | 43.91149 | -89.45662 | 8011 ft | 200 kts | 245° |
| 2026-04-30 02:26 | 43.90429 | -89.47310 | 8011 ft | 200 kts | 245° |
| 2026-04-30 02:26 | 43.89711 | -89.48952 | 8011 ft | 199 kts | 245° |
| 2026-04-30 02:26 | 43.88992 | -89.50594 | 8012 ft | 199 kts | 245° |
| 2026-04-30 02:26 | 43.88272 | -89.52242 | 8012 ft | 199 kts | 245° |
| 2026-04-30 02:27 | 43.87553 | -89.53884 | 8011 ft | 199 kts | 245° |
| 2026-04-30 02:27 | 43.86833 | -89.55528 | 8013 ft | 199 kts | 245° |
| 2026-04-30 02:27 | 43.86111 | -89.57170 | 8012 ft | 199 kts | 245° |
| 2026-04-30 02:27 | 43.85401 | -89.58792 | 8013 ft | 199 kts | 245° |
| 2026-04-30 02:28 | 43.84680 | -89.60436 | 8013 ft | 199 kts | 245° |
| 2026-04-30 02:28 | 43.83959 | -89.62077 | 8011 ft | 199 kts | 245° |
| 2026-04-30 02:28 | 43.83238 | -89.63718 | 8012 ft | 200 kts | 245° |
| 2026-04-30 02:28 | 43.82516 | -89.65360 | 8013 ft | 200 kts | 245° |
| 2026-04-30 02:29 | 43.81795 | -89.67001 | 8013 ft | 199 kts | 245° |
| 2026-04-30 02:29 | 43.81071 | -89.68643 | 8017 ft | 200 kts | 245° |
| 2026-04-30 02:29 | 43.80349 | -89.70284 | 8016 ft | 200 kts | 245° |
| 2026-04-30 02:29 | 43.79627 | -89.71925 | 8017 ft | 199 kts | 245° |
| 2026-04-30 02:30 | 43.78904 | -89.73563 | 8018 ft | 200 kts | 245° |
| 2026-04-30 02:30 | 43.78178 | -89.75207 | 8016 ft | 200 kts | 246° |
| 2026-04-30 02:30 | 43.77455 | -89.76845 | 8017 ft | 200 kts | 246° |
| 2026-04-30 02:30 | 43.76732 | -89.78487 | 8018 ft | 200 kts | 245° |
| 2026-04-30 02:31 | 43.76008 | -89.80128 | 8014 ft | 200 kts | 246° |
| 2026-04-30 02:31 | 43.75282 | -89.81767 | 8018 ft | 200 kts | 246° |
| 2026-04-30 02:31 | 43.74554 | -89.83409 | 8018 ft | 200 kts | 246° |
| 2026-04-30 02:31 | 43.73827 | -89.85050 | 8016 ft | 200 kts | 246° |
| 2026-04-30 02:32 | 43.73100 | -89.86695 | 8018 ft | 200 kts | 246° |
| 2026-04-30 02:32 | 43.72373 | -89.88336 | 8018 ft | 200 kts | 246° |
| 2026-04-30 02:32 | 43.71646 | -89.89976 | 8017 ft | 200 kts | 246° |
| 2026-04-30 02:32 | 43.70918 | -89.91614 | 8021 ft | 200 kts | 246° |
| 2026-04-30 02:33 | 43.70199 | -89.93233 | 8023 ft | 200 kts | 246° |
| 2026-04-30 02:33 | 43.69473 | -89.94870 | 8019 ft | 200 kts | 246° |
| 2026-04-30 02:33 | 43.68745 | -89.96511 | 8023 ft | 200 kts | 246° |
| 2026-04-30 02:33 | 43.68019 | -89.98144 | 8018 ft | 200 kts | 246° |
| 2026-04-30 02:34 | 43.67291 | -89.99779 | 8020 ft | 200 kts | 246° |
| 2026-04-30 02:34 | 43.66562 | -90.01417 | 8018 ft | 200 kts | 246° |
| 2026-04-30 02:34 | 43.65835 | -90.03056 | 8017 ft | 200 kts | 246° |
| 2026-04-30 02:34 | 43.65106 | -90.04683 | 8019 ft | 199 kts | 246° |
| 2026-04-30 02:35 | 43.64377 | -90.06313 | 8016 ft | 199 kts | 246° |
| 2026-04-30 02:35 | 43.63652 | -90.07945 | 8017 ft | 199 kts | 246° |
| 2026-04-30 02:35 | 43.62926 | -90.09574 | 8015 ft | 200 kts | 246° |
| 2026-04-30 02:35 | 43.62196 | -90.11207 | 8017 ft | 200 kts | 246° |
| 2026-04-30 02:36 | 43.61464 | -90.12843 | 8014 ft | 201 kts | 246° |
| 2026-04-30 02:36 | 43.60732 | -90.14480 | 8015 ft | 201 kts | 246° |
| 2026-04-30 02:36 | 43.59998 | -90.16120 | 8012 ft | 200 kts | 246° |
| 2026-04-30 02:36 | 43.59264 | -90.17759 | 8015 ft | 201 kts | 246° |
| 2026-04-30 02:37 | 43.58539 | -90.19380 | 8013 ft | 201 kts | 246° |
| 2026-04-30 02:37 | 43.57805 | -90.21023 | 8013 ft | 201 kts | 246° |
| 2026-04-30 02:37 | 43.57066 | -90.22659 | 8013 ft | 200 kts | 246° |
| 2026-04-30 02:37 | 43.56336 | -90.24298 | 8012 ft | 201 kts | 246° |
| 2026-04-30 02:38 | 43.55601 | -90.25937 | 8013 ft | 200 kts | 246° |
| 2026-04-30 02:38 | 43.54866 | -90.27564 | 8011 ft | 200 kts | 246° |
| 2026-04-30 02:38 | 43.54135 | -90.29192 | 8011 ft | 200 kts | 247° |
| 2026-04-30 02:38 | 43.53403 | -90.30824 | 8013 ft | 200 kts | 246° |
| 2026-04-30 02:39 | 43.52670 | -90.32454 | 8019 ft | 200 kts | 246° |
| 2026-04-30 02:39 | 43.51934 | -90.34084 | 8018 ft | 200 kts | 246° |
| 2026-04-30 02:39 | 43.51197 | -90.35714 | 8009 ft | 201 kts | 247° |
| 2026-04-30 02:39 | 43.50466 | -90.37343 | 8022 ft | 200 kts | 247° |
| 2026-04-30 02:40 | 43.49733 | -90.38973 | 8017 ft | 200 kts | 246° |
| 2026-04-30 02:40 | 43.49008 | -90.40585 | 8017 ft | 200 kts | 246° |
| 2026-04-30 02:40 | 43.48275 | -90.42208 | 8022 ft | 200 kts | 246° |
| 2026-04-30 02:40 | 43.47537 | -90.43830 | 8021 ft | 200 kts | 247° |
| 2026-04-30 02:41 | 43.46804 | -90.45456 | 8019 ft | 200 kts | 247° |
| 2026-04-30 02:41 | 43.46073 | -90.47082 | 8014 ft | 200 kts | 246° |
| 2026-04-30 02:41 | 43.45341 | -90.48699 | 8025 ft | 198 kts | 246° |
| 2026-04-30 02:41 | 43.44607 | -90.50315 | 8027 ft | 199 kts | 246° |
| 2026-04-30 02:42 | 43.43874 | -90.51934 | 8027 ft | 199 kts | 246° |
| 2026-04-30 02:42 | 43.43141 | -90.53554 | 8037 ft | 199 kts | 246° |
| 2026-04-30 02:42 | 43.42406 | -90.55176 | 8033 ft | 200 kts | 246° |
| 2026-04-30 02:42 | 43.41670 | -90.56796 | 8034 ft | 200 kts | 246° |
| 2026-04-30 02:43 | 43.40931 | -90.58423 | 8029 ft | 200 kts | 246° |
| 2026-04-30 02:43 | 43.40194 | -90.60048 | 8034 ft | 200 kts | 246° |
| 2026-04-30 02:43 | 43.39458 | -90.61668 | 8030 ft | 200 kts | 246° |
| 2026-04-30 02:43 | 43.38730 | -90.63266 | 8034 ft | 199 kts | 246° |
| 2026-04-30 02:44 | 43.37993 | -90.64888 | 8032 ft | 200 kts | 246° |
| 2026-04-30 02:44 | 43.37256 | -90.66509 | 8029 ft | 200 kts | 246° |
| 2026-04-30 02:44 | 43.36519 | -90.68125 | 8038 ft | 200 kts | 246° |
| 2026-04-30 02:44 | 43.35781 | -90.69746 | 8039 ft | 200 kts | 246° |
| 2026-04-30 02:45 | 43.35040 | -90.71368 | 8027 ft | 200 kts | 246° |
| 2026-04-30 02:45 | 43.34305 | -90.72985 | 8035 ft | 200 kts | 246° |
| 2026-04-30 02:45 | 43.33567 | -90.74603 | 8046 ft | 200 kts | 246° |
| 2026-04-30 02:45 | 43.32822 | -90.76226 | 8032 ft | 201 kts | 246° |
| 2026-04-30 02:46 | 43.32082 | -90.77844 | 8038 ft | 200 kts | 245° |
| 2026-04-30 02:46 | 43.31403 | -90.79509 | 8034 ft | 199 kts | 251° |
| 2026-04-30 02:46 | 43.30772 | -90.81191 | 8041 ft | 197 kts | 249° |
| 2026-04-30 02:46 | 43.30081 | -90.82820 | 8042 ft | 198 kts | 246° |
| 2026-04-30 02:47 | 43.29346 | -90.84416 | 8040 ft | 199 kts | 245° |
| 2026-04-30 02:47 | 43.28602 | -90.86016 | 8038 ft | 198 kts | 245° |
| 2026-04-30 02:47 | 43.27862 | -90.87622 | 8042 ft | 199 kts | 245° |
| 2026-04-30 02:47 | 43.27131 | -90.89210 | 8039 ft | 200 kts | 245° |
| 2026-04-30 02:48 | 43.26389 | -90.90820 | 8032 ft | 199 kts | 245° |
| 2026-04-30 02:48 | 43.25649 | -90.92428 | 8038 ft | 199 kts | 245° |
| 2026-04-30 02:48 | 43.24904 | -90.94039 | 8036 ft | 200 kts | 245° |
| 2026-04-30 02:48 | 43.24161 | -90.95649 | 8031 ft | 199 kts | 245° |
| 2026-04-30 02:49 | 43.23674 | -90.96713 | 8043 ft | 199 kts | 245° |
| 2026-04-30 02:49 | 43.22933 | -90.98320 | 8035 ft | 199 kts | 245° |
| 2026-04-30 02:49 | 43.22187 | -90.99925 | 8035 ft | 200 kts | 245° |
| 2026-04-30 02:49 | 43.21446 | -91.01529 | 8048 ft | 199 kts | 245° |
| 2026-04-30 02:50 | 43.20704 | -91.03136 | 8039 ft | 200 kts | 245° |
| 2026-04-30 02:50 | 43.19959 | -91.04747 | 8042 ft | 200 kts | 245° |
| 2026-04-30 02:50 | 43.19213 | -91.06359 | 8042 ft | 200 kts | 245° |
| 2026-04-30 02:50 | 43.18467 | -91.07968 | 8048 ft | 200 kts | 245° |
| 2026-04-30 02:51 | 43.17722 | -91.09574 | 8045 ft | 199 kts | 245° |
| 2026-04-30 02:51 | 43.16979 | -91.11178 | 8043 ft | 199 kts | 245° |
| 2026-04-30 02:51 | 43.16233 | -91.12783 | 8047 ft | 200 kts | 245° |
| 2026-04-30 02:51 | 43.15486 | -91.14388 | 8043 ft | 200 kts | 245° |
| 2026-04-30 02:52 | 43.14751 | -91.15973 | 8040 ft | 199 kts | 244° |
| 2026-04-30 02:52 | 43.14008 | -91.17575 | 8038 ft | 199 kts | 244° |
| 2026-04-30 02:52 | 43.13263 | -91.19173 | 8050 ft | 199 kts | 244° |
| 2026-04-30 02:52 | 43.12520 | -91.20770 | 8049 ft | 199 kts | 245° |
| 2026-04-30 02:53 | 43.11776 | -91.22374 | 8044 ft | 200 kts | 244° |
| 2026-04-30 02:53 | 43.11029 | -91.23973 | 8040 ft | 200 kts | 244° |
| 2026-04-30 02:53 | 43.10282 | -91.25576 | 8048 ft | 199 kts | 244° |
| 2026-04-30 02:53 | 43.09536 | -91.27174 | 8047 ft | 199 kts | 244° |
| 2026-04-30 02:54 | 43.08791 | -91.28775 | 8046 ft | 200 kts | 244° |
| 2026-04-30 02:54 | 43.08046 | -91.30375 | 8043 ft | 200 kts | 244° |
| 2026-04-30 02:54 | 43.07297 | -91.31974 | 8043 ft | 200 kts | 244° |
| 2026-04-30 02:54 | 43.06546 | -91.33581 | 8039 ft | 199 kts | 244° |
| 2026-04-30 02:55 | 43.05801 | -91.35176 | 8047 ft | 199 kts | 244° |
| 2026-04-30 02:55 | 43.05053 | -91.36773 | 8038 ft | 199 kts | 244° |
| 2026-04-30 02:55 | 43.04318 | -91.38346 | 8038 ft | 199 kts | 244° |
| 2026-04-30 02:55 | 43.03569 | -91.39939 | 8045 ft | 199 kts | 244° |
| 2026-04-30 02:56 | 43.02826 | -91.41529 | 8043 ft | 199 kts | 244° |
| 2026-04-30 02:56 | 43.02078 | -91.43124 | 8043 ft | 199 kts | 244° |
| 2026-04-30 02:56 | 43.01331 | -91.44716 | 8044 ft | 199 kts | 244° |
| 2026-04-30 02:56 | 43.00584 | -91.46307 | 8037 ft | 198 kts | 244° |
| 2026-04-30 02:57 | 42.99841 | -91.47892 | 8042 ft | 199 kts | 244° |
| 2026-04-30 02:57 | 42.99032 | -91.49420 | 8038 ft | 199 kts | 233° |
| 2026-04-30 02:57 | 42.98008 | -91.50714 | 8046 ft | 203 kts | 228° |
| 2026-04-30 02:57 | 42.96946 | -91.51990 | 8040 ft | 204 kts | 229° |
| 2026-04-30 02:58 | 42.95898 | -91.53292 | 8038 ft | 203 kts | 230° |
| 2026-04-30 02:58 | 42.94869 | -91.54589 | 8024 ft | 205 kts | 230° |
| 2026-04-30 02:58 | 42.93823 | -91.55906 | 8047 ft | 204 kts | 230° |
| 2026-04-30 02:58 | 42.92778 | -91.57221 | 8040 ft | 205 kts | 230° |
| 2026-04-30 02:59 | 42.91729 | -91.58540 | 8039 ft | 205 kts | 230° |
| 2026-04-30 02:59 | 42.90677 | -91.59861 | 8037 ft | 206 kts | 230° |
| 2026-04-30 02:59 | 42.89622 | -91.61189 | 8037 ft | 206 kts | 230° |
| 2026-04-30 02:59 | 42.88566 | -91.62514 | 8037 ft | 206 kts | 230° |
| 2026-04-30 03:00 | 42.87510 | -91.63838 | 8040 ft | 206 kts | 230° |
| 2026-04-30 03:00 | 42.86452 | -91.65162 | 8044 ft | 206 kts | 230° |
| 2026-04-30 03:00 | 42.85400 | -91.66484 | 8041 ft | 206 kts | 230° |
| 2026-04-30 03:00 | 42.84336 | -91.67817 | 7979 ft | 209 kts | 230° |
| 2026-04-30 03:01 | 42.83266 | -91.69159 | 7976 ft | 208 kts | 229° |
| 2026-04-30 03:01 | 42.82199 | -91.70490 | 7987 ft | 207 kts | 230° |
| 2026-04-30 03:01 | 42.81138 | -91.71817 | 7984 ft | 207 kts | 230° |
| 2026-04-30 03:01 | 42.80092 | -91.73128 | 7985 ft | 207 kts | 230° |
| 2026-04-30 03:02 | 42.79033 | -91.74452 | 7980 ft | 207 kts | 229° |
| 2026-04-30 03:02 | 42.77974 | -91.75773 | 7987 ft | 206 kts | 230° |
| 2026-04-30 03:02 | 42.76917 | -91.77093 | 7990 ft | 206 kts | 230° |
| 2026-04-30 03:02 | 42.75860 | -91.78413 | 7989 ft | 206 kts | 230° |
| 2026-04-30 03:03 | 42.74801 | -91.79734 | 7990 ft | 206 kts | 230° |
| 2026-04-30 03:03 | 42.72683 | -91.82375 | 7996 ft | 207 kts | 229° |
| 2026-04-30 03:03 | 42.71625 | -91.83692 | 7994 ft | 206 kts | 229° |
| 2026-04-30 03:04 | 42.70569 | -91.85006 | 7976 ft | 205 kts | 229° |
| 2026-04-30 03:04 | 42.69512 | -91.86326 | 7834 ft | 208 kts | 229° |
| 2026-04-30 03:04 | 42.68439 | -91.87663 | 7672 ft | 210 kts | 229° |
| 2026-04-30 03:04 | 42.67356 | -91.89009 | 7519 ft | 212 kts | 229° |
| 2026-04-30 03:05 | 42.66263 | -91.90368 | 7332 ft | 214 kts | 228° |
| 2026-04-30 03:05 | 42.65168 | -91.91726 | 7108 ft | 212 kts | 228° |
| 2026-04-30 03:05 | 42.64081 | -91.93077 | 6867 ft | 212 kts | 227° |
| 2026-04-30 03:05 | 42.63000 | -91.94420 | 6581 ft | 214 kts | 227° |
| 2026-04-30 03:06 | 42.61896 | -91.95788 | 6266 ft | 216 kts | 227° |
| 2026-04-30 03:06 | 42.60800 | -91.97142 | 5913 ft | 208 kts | 227° |
| 2026-04-30 03:06 | 42.59746 | -91.98446 | 5479 ft | 203 kts | 227° |
| 2026-04-30 03:06 | 42.58719 | -91.99719 | 5094 ft | 197 kts | 227° |
| 2026-04-30 03:07 | 42.57715 | -92.00965 | 4665 ft | 195 kts | 226° |
| 2026-04-30 03:07 | 42.56720 | -92.02198 | 4238 ft | 191 kts | 226° |
| 2026-04-30 03:07 | 42.55744 | -92.03406 | 3835 ft | 188 kts | 226° |
| 2026-04-30 03:07 | 42.54784 | -92.04593 | 3424 ft | 185 kts | 226° |
| 2026-04-30 03:08 | 42.53843 | -92.05757 | 3013 ft | 182 kts | 226° |
| 2026-04-30 03:08 | 42.52926 | -92.06889 | 2738 ft | 170 kts | 225° |
| 2026-04-30 03:08 | 42.52086 | -92.07918 | 2766 ft | 168 kts | 225° |
| 2026-04-30 03:08 | 42.51202 | -92.09001 | 2939 ft | 173 kts | 225° |
| 2026-04-30 03:09 | 42.50303 | -92.10107 | 3154 ft | 176 kts | 225° |
| 2026-04-30 03:09 | 42.49399 | -92.11223 | 3374 ft | 176 kts | 225° |
| 2026-04-30 03:09 | 42.48488 | -92.12344 | 3555 ft | 179 kts | 226° |
| 2026-04-30 03:09 | 42.47549 | -92.13505 | 3483 ft | 183 kts | 226° |
| 2026-04-30 03:10 | 42.46617 | -92.14655 | 3485 ft | 179 kts | 225° |
| 2026-04-30 03:10 | 42.45701 | -92.15781 | 3481 ft | 177 kts | 225° |
| 2026-04-30 03:10 | 42.44911 | -92.17019 | 3489 ft | 174 kts | 245° |
| 2026-04-30 03:10 | 42.44559 | -92.18554 | 3486 ft | 167 kts | 268° |
| 2026-04-30 03:11 | 42.44674 | -92.20025 | 3451 ft | 147 kts | 290° |
| 2026-04-30 03:11 | 42.45020 | -92.21214 | 3449 ft | 126 kts | 293° |
| 2026-04-30 03:11 | 42.45389 | -92.22224 | 3482 ft | 115 kts | 304° |
| 2026-04-30 03:11 | 42.45858 | -92.23093 | 3475 ft | 115 kts | 310° |
| 2026-04-30 03:12 | 42.46382 | -92.23910 | 3469 ft | 114 kts | 313° |
| 2026-04-30 03:12 | 42.46910 | -92.24703 | 3468 ft | 113 kts | 313° |
| 2026-04-30 03:12 | 42.47428 | -92.25485 | 3432 ft | 115 kts | 312° |
| 2026-04-30 03:12 | 42.47983 | -92.26345 | 3254 ft | 126 kts | 311° |
| 2026-04-30 03:13 | 42.48558 | -92.27267 | 3061 ft | 130 kts | 310° |
| 2026-04-30 03:13 | 42.49134 | -92.28214 | 2889 ft | 131 kts | 310° |
| 2026-04-30 03:13 | 42.49695 | -92.29167 | 2686 ft | 127 kts | 309° |
| 2026-04-30 03:13 | 42.50229 | -92.30094 | 2515 ft | 122 kts | 309° |
| 2026-04-30 03:14 | 42.50741 | -92.30983 | 2362 ft | 118 kts | 309° |
| 2026-04-30 03:14 | 42.51198 | -92.31779 | 2200 ft | 95 kts | 309° |
| 2026-04-30 03:14 | 42.51603 | -92.32483 | 2093 ft | 96 kts | 309° |
| 2026-04-30 03:14 | 42.52020 | -92.33209 | 1946 ft | 99 kts | 309° |
| 2026-04-30 03:15 | 42.52445 | -92.33945 | 1794 ft | 100 kts | 309° |
| 2026-04-30 03:15 | 42.52877 | -92.34694 | 1651 ft | 101 kts | 308° |
| 2026-04-30 03:15 | 42.53310 | -92.35444 | 1510 ft | 103 kts | 308° |
| 2026-04-30 03:15 | 42.53747 | -92.36216 | 1373 ft | 102 kts | 306° |
| 2026-04-30 03:16 | 42.54169 | -92.36984 | 1187 ft | 101 kts | 307° |
| 2026-04-30 03:16 | 42.54600 | -92.37715 | 1027 ft | 96 kts | 309° |
| 2026-04-30 03:16 | 42.55000 | -92.38401 | 935 ft | 90 kts | 308° |
| 2026-04-30 03:16 | 42.55368 | -92.39045 | 877 ft | 76 kts | 308° |
| 2026-04-30 03:17 | 42.55629 | -92.39494 | 873 ft | 50 kts | 308° |
| 2026-04-30 03:17 | 42.55798 | -92.39822 | 875 ft | 35 kts | 302° |
| 2026-04-30 03:17 | 42.55930 | -92.40049 | 876 ft | 27 kts | 308° |
| 2026-04-30 03:17 | 42.56069 | -92.40058 | 875 ft | 10 kts | 22° |
| 2026-04-30 03:18 | 42.56075 | -92.40054 | 875 ft | 0 kts | 32° |